Time;durP1;ratioP1;P1;durP2;ratioP2;P2;SDS_P1;SDS_P2;PMS_P1;PMS_P2;Temp;Humidity;BMP_temperature;BMP_pressure;BME280_temperature;BME280_humidity;BME280_pressure;Samples;Min_cycle;Max_cycle;Signal;HPM_P1;HPM_P2
2022/12/07 00:00:50;;;;;;;;;;;;;;;6.46;69.54;100624.31;4986004;28;19918;-80
2022/12/07 00:03:35;;;;;;;;;;;;;;;6.38;69.23;100614.16;4975497;28;19917;-82
2022/12/07 00:06:20;;;;;;;;;;;;;;;6.38;68.97;100622.28;4988103;28;19918;-82
2022/12/07 00:09:05;;;;;;;;;;;;;;;6.51;68.49;100628.84;4977880;28;19918;-83
2022/12/07 00:11:51;;;;;;;;;;;;;;;6.47;68.24;100625.13;4981918;28;19922;-82
2022/12/07 00:14:35;;;;;;;;;;;;;;;6.50;68.65;100616.44;4988749;28;20310;-83
2022/12/07 00:17:19;;;;;;;;;;;;;;;6.51;68.92;100607.22;4985669;28;19918;-81
2022/12/07 00:20:04;;;;;;;;;;;;;;;6.56;69.08;100604.47;4989743;28;19918;-80
2022/12/07 00:22:49;;;;;;;;;;;;;;;6.45;69.99;100611.91;4986394;28;19918;-81
2022/12/07 00:25:33;;;;;;;;;;;;;;;6.48;69.45;100603.22;4988435;28;19917;-80
2022/12/07 00:28:18;;;;;;;;;;;;;;;6.56;69.85;100616.06;4992307;28;19918;-79
2022/12/07 00:31:06;;;;;;;;;;;;;;;6.63;69.73;100610.31;4981426;28;19917;-80
2022/12/07 00:33:51;;;;;;;;;;;;;;;6.81;70.58;100610.31;4979842;28;19918;-83
2022/12/07 00:36:35;;;;;;;;;;;;;;;6.93;68.69;100611.78;4992548;28;20298;-82
2022/12/07 00:39:20;;;;;;;;;;;;;;;6.90;68.51;100606.97;5000818;28;19918;-82
2022/12/07 00:42:04;;;;;;;;;;;;;;;6.85;68.51;100607.84;4999004;28;19918;-81
2022/12/07 00:44:48;;;;;;;;;;;;;;;6.97;68.17;100610.91;4983990;28;19917;-81
2022/12/07 00:47:33;;;;;;;;;;;;;;;7.09;67.17;100608.56;4998503;28;19917;-81
2022/12/07 00:50:17;;;;;;;;;;;;;;;6.98;67.16;100617.09;4981626;28;19917;-81
2022/12/07 00:53:01;;;;;;;;;;;;;;;7.02;66.96;100599.19;4995281;28;19921;-80
2022/12/07 00:55:47;;;;;;;;;;;;;;;6.86;67.36;100604.84;4998519;28;19922;-80
2022/12/07 00:58:31;;;;;;;;;;;;;;;6.64;67.72;100599.22;4986741;28;19917;-79
2022/12/07 01:01:16;;;;;;;;;;;;;;;6.69;67.49;100601.06;4995006;28;19921;-83
2022/12/07 01:04:03;;;;;;;;;;;;;;;6.73;66.89;100597.47;5000665;28;19918;-82
2022/12/07 01:06:47;;;;;;;;;;;;;;;6.75;66.40;100595.28;4987074;28;19917;-82
2022/12/07 01:09:32;;;;;;;;;;;;;;;6.74;65.95;100598.28;4991064;28;19917;-82
2022/12/07 01:12:16;;;;;;;;;;;;;;;6.61;66.26;100594.41;4996747;28;19922;-83
2022/12/07 01:15:01;;;;;;;;;;;;;;;6.64;66.80;100590.31;4991533;28;19918;-83
2022/12/07 01:17:45;;;;;;;;;;;;;;;6.65;66.67;100591.94;4993767;28;19918;-82
2022/12/07 01:20:29;;;;;;;;;;;;;;;6.61;67.70;100597.09;4985572;28;20291;-83
2022/12/07 01:23:14;;;;;;;;;;;;;;;6.61;67.50;100594.41;4994922;28;19918;-82
2022/12/07 01:26:00;;;;;;;;;;;;;;;6.62;66.93;100596.00;4979269;28;19967;-82
2022/12/07 01:28:45;;;;;;;;;;;;;;;6.62;67.18;100596.00;4978271;28;19917;-82
2022/12/07 01:31:29;;;;;;;;;;;;;;;6.71;66.09;100599.66;4994798;28;19926;-82
2022/12/07 01:34:14;;;;;;;;;;;;;;;6.54;66.85;100595.88;4994364;28;19918;-81
2022/12/07 01:36:58;;;;;;;;;;;;;;;6.71;65.54;100602.34;4999335;28;19918;-81
2022/12/07 01:39:43;;;;;;;;;;;;;;;6.45;65.82;100596.50;4999648;28;19918;-80
2022/12/07 01:42:28;;;;;;;;;;;;;;;6.55;66.00;100602.88;4994755;28;19917;-80
2022/12/07 01:45:18;;;;;;;;;;;;;;;6.67;64.87;100601.34;4987217;28;19918;-78
2022/12/07 01:48:04;;;;;;;;;;;;;;;6.63;65.99;100597.63;4978997;28;19918;-79
2022/12/07 01:50:50;;;;;;;;;;;;;;;6.61;66.16;100594.41;4980820;28;19918;-79
2022/12/07 01:53:35;;;;;;;;;;;;;;;6.52;66.51;100589.94;4978293;28;19922;-79
2022/12/07 01:56:24;;;;;;;;;;;;;;;6.69;64.39;100579.44;4994411;28;19918;-79
2022/12/07 01:59:08;;;;;;;;;;;;;;;6.55;64.96;100598.28;4992895;28;19922;-79
2022/12/07 02:01:54;;;;;;;;;;;;;;;6.44;65.09;100594.91;4987883;28;20443;-80
2022/12/07 02:04:39;;;;;;;;;;;;;;;6.39;65.08;100597.69;4986408;28;19917;-79
2022/12/07 02:07:23;;;;;;;;;;;;;;;6.43;64.55;100587.91;4985903;28;19919;-80
2022/12/07 02:10:13;;;;;;;;;;;;;;;6.19;66.38;100584.44;4986581;28;19918;-80
2022/12/07 02:12:59;;;;;;;;;;;;;;;6.35;65.22;100571.53;4983096;28;19921;-80
2022/12/07 02:15:50;;;;;;;;;;;;;;;6.29;66.15;100570.00;4980423;28;19918;-80
2022/12/07 02:18:41;;;;;;;;;;;;;;;6.08;67.01;100574.84;4978891;28;19918;-79
2022/12/07 02:21:31;;;;;;;;;;;;;;;6.01;67.07;100572.50;4982317;28;19922;-78
2022/12/07 02:24:31;;;;;;;;;;;;;;;5.96;68.09;100572.56;4994459;28;19917;-80
2022/12/07 02:27:34;;;;;;;;;;;;;;;6.07;67.32;100578.63;4983597;28;19921;-79
2022/12/07 02:30:20;;;;;;;;;;;;;;;6.17;66.88;100578.50;4981013;28;19918;-80
2022/12/07 02:33:07;;;;;;;;;;;;;;;6.15;66.46;100564.50;4992481;28;20399;-80
2022/12/07 02:35:51;;;;;;;;;;;;;;;6.13;66.43;100561.28;4978393;28;19918;-80
2022/12/07 02:38:56;;;;;;;;;;;;;;;5.96;67.38;100567.16;4984817;28;19921;-79
2022/12/07 02:41:44;;;;;;;;;;;;;;;5.71;69.79;100569.31;4979818;28;19917;-79
2022/12/07 02:44:30;;;;;;;;;;;;;;;6.01;67.66;100575.19;4994043;28;19918;-80
2022/12/07 02:47:16;;;;;;;;;;;;;;;6.13;66.28;100568.59;4980092;28;19917;-80
2022/12/07 02:50:03;;;;;;;;;;;;;;;6.31;66.70;100574.00;4976971;28;19918;-81
2022/12/07 02:52:48;;;;;;;;;;;;;;;6.34;67.18;100569.94;4988431;28;19922;-82
2022/12/07 02:55:37;;;;;;;;;;;;;;;6.08;67.04;100565.94;4993554;28;19918;-81
2022/12/07 02:58:36;;;;;;;;;;;;;;;6.18;67.42;100568.53;4998711;28;19917;-81
2022/12/07 03:01:24;;;;;;;;;;;;;;;6.18;67.82;100571.22;4994679;28;19918;-81
2022/12/07 03:04:08;;;;;;;;;;;;;;;6.25;68.08;100577.06;4979360;28;19918;-82
2022/12/07 03:07:05;;;;;;;;;;;;;;;6.34;67.18;100578.84;4983040;28;19917;-82
2022/12/07 03:09:49;;;;;;;;;;;;;;;6.31;66.46;100575.91;4994143;28;19926;-82
2022/12/07 03:12:39;;;;;;;;;;;;;;;6.32;67.20;100577.50;4968765;28;19921;-81
2022/12/07 03:15:31;;;;;;;;;;;;;;;6.35;66.99;100564.22;4993268;28;20295;-82
2022/12/07 03:18:18;;;;;;;;;;;;;;;6.30;67.46;100572.38;4978085;28;20383;-82
2022/12/07 03:21:06;;;;;;;;;;;;;;;6.24;67.47;100564.66;4986119;28;19918;-80
2022/12/07 03:23:53;;;;;;;;;;;;;;;6.40;66.58;100550.66;4989372;28;19918;-83
2022/12/07 03:26:41;;;;;;;;;;;;;;;6.15;65.47;100555.59;4998821;28;20325;-81
2022/12/07 03:29:28;;;;;;;;;;;;;;;6.20;66.94;100542.03;4997131;28;20394;-81
2022/12/07 03:32:16;;;;;;;;;;;;;;;5.97;67.39;100544.47;4993443;28;19921;-81
2022/12/07 03:35:10;;;;;;;;;;;;;;;6.07;67.38;100538.16;4983873;28;20386;-83
2022/12/07 03:37:58;;;;;;;;;;;;;;;6.04;67.27;100532.53;4996969;28;19917;-82
2022/12/07 03:40:57;;;;;;;;;;;;;;;5.99;67.89;100531.47;4974252;28;19918;-80
2022/12/07 03:43:41;;;;;;;;;;;;;;;6.04;67.36;100524.44;4982195;28;19917;-81
2022/12/07 03:46:29;;;;;;;;;;;;;;;6.15;66.92;100521.28;4996553;28;19918;-80
2022/12/07 03:49:29;;;;;;;;;;;;;;;6.06;68.17;100527.63;4988587;28;19926;-80
2022/12/07 03:52:34;;;;;;;;;;;;;;;6.12;68.65;100513.78;4981634;28;19922;-80
2022/12/07 03:55:21;;;;;;;;;;;;;;;6.24;66.95;100516.06;4988273;28;20386;-80
2022/12/07 03:58:09;;;;;;;;;;;;;;;6.23;66.78;100514.47;4972516;28;19917;-80
2022/12/07 04:00:53;;;;;;;;;;;;;;;6.05;67.71;100502.53;5000528;28;19922;-81
2022/12/07 04:03:37;;;;;;;;;;;;;;;5.98;67.87;100502.09;5000921;28;19918;-79
2022/12/07 04:06:22;;;;;;;;;;;;;;;5.84;67.59;100520.84;4982643;28;20303;-79
2022/12/07 04:09:07;;;;;;;;;;;;;;;5.91;69.11;100520.53;4995416;28;19922;-80
2022/12/07 04:11:51;;;;;;;;;;;;;;;6.06;68.81;100516.84;5002133;28;19918;-81
2022/12/07 04:14:36;;;;;;;;;;;;;;;6.13;68.44;100523.50;4988702;28;19917;-80
2022/12/07 04:17:20;;;;;;;;;;;;;;;6.17;67.57;100518.31;4992400;28;19918;-82
2022/12/07 04:20:05;;;;;;;;;;;;;;;6.18;68.19;100514.53;4988243;28;19918;-81
2022/12/07 04:22:50;;;;;;;;;;;;;;;6.30;68.96;100520.28;4983432;28;19917;-82
2022/12/07 04:25:35;;;;;;;;;;;;;;;6.28;68.20;100520.59;4988299;28;19917;-82
2022/12/07 04:28:19;;;;;;;;;;;;;;;6.15;68.11;100515.09;4988260;28;19917;-82
2022/12/07 04:31:03;;;;;;;;;;;;;;;6.18;69.22;100517.22;4987268;28;20370;-83
2022/12/07 04:33:47;;;;;;;;;;;;;;;6.17;69.51;100513.72;4995597;28;19921;-85
2022/12/07 04:36:32;;;;;;;;;;;;;;;6.12;69.12;100510.28;4996217;28;19918;-84
2022/12/07 04:39:20;;;;;;;;;;;;;;;6.14;68.84;100506.22;5001575;28;20394;-84
2022/12/07 04:42:04;;;;;;;;;;;;;;;6.20;69.71;100505.03;4996051;28;19918;-84
2022/12/07 04:44:49;;;;;;;;;;;;;;;6.15;70.28;100502.41;4996043;28;19917;-84
2022/12/07 04:47:33;;;;;;;;;;;;;;;6.15;69.45;100504.28;4983748;28;19918;-80
2022/12/07 04:50:18;;;;;;;;;;;;;;;6.10;68.97;100512.47;4981770;28;20398;-82
2022/12/07 04:53:02;;;;;;;;;;;;;;;5.97;69.26;100512.09;4983071;28;20310;-83
2022/12/07 04:55:46;;;;;;;;;;;;;;;5.98;70.21;100515.59;4998093;28;19921;-81
2022/12/07 04:58:31;;;;;;;;;;;;;;;5.93;68.81;100518.38;5000362;28;19925;-82
2022/12/07 05:01:16;;;;;;;;;;;;;;;5.95;69.09;100524.25;5005017;28;19918;-83
2022/12/07 05:04:01;;;;;;;;;;;;;;;5.88;69.34;100521.94;4998495;28;19918;-80
2022/12/07 05:06:45;;;;;;;;;;;;;;;5.80;69.43;100533.31;4995012;28;19918;-85
2022/12/07 05:09:29;;;;;;;;;;;;;;;5.82;68.93;100524.94;4994896;28;20310;-83
2022/12/07 05:12:14;;;;;;;;;;;;;;;5.76;69.64;100521.50;4998423;28;19921;-83
2022/12/07 05:14:58;;;;;;;;;;;;;;;5.75;68.77;100517.19;4985256;28;20398;-81
2022/12/07 05:17:43;;;;;;;;;;;;;;;5.74;68.98;100512.88;4990003;28;20310;-80
2022/12/07 05:20:27;;;;;;;;;;;;;;;5.40;69.13;100498.72;4983531;28;19922;-80
2022/12/07 05:23:12;;;;;;;;;;;;;;;5.35;69.37;100509.53;4984119;28;19918;-81
2022/12/07 05:25:57;;;;;;;;;;;;;;;5.50;69.24;100506.69;4978917;28;19921;-82
2022/12/07 05:28:41;;;;;;;;;;;;;;;5.45;70.15;100496.75;4985840;28;19918;-80
2022/12/07 05:31:26;;;;;;;;;;;;;;;5.22;68.52;100502.13;4986682;28;19918;-81
2022/12/07 05:34:11;;;;;;;;;;;;;;;5.15;70.17;100503.28;4986889;28;19922;-82
2022/12/07 05:36:55;;;;;;;;;;;;;;;5.36;71.09;100503.88;4982117;28;19917;-83
2022/12/07 05:39:42;;;;;;;;;;;;;;;5.44;67.26;100497.03;4991144;28;20321;-81
2022/12/07 05:42:27;;;;;;;;;;;;;;;5.39;67.72;100503.28;5010611;28;19921;-80
2022/12/07 05:45:11;;;;;;;;;;;;;;;5.53;66.65;100498.84;5000488;28;19918;-80
2022/12/07 05:47:55;;;;;;;;;;;;;;;5.36;66.42;100501.19;4989879;28;19918;-80
2022/12/07 05:50:40;;;;;;;;;;;;;;;5.36;66.98;100511.16;4999626;28;20300;-80
2022/12/07 05:53:24;;;;;;;;;;;;;;;5.40;66.71;100510.28;4998238;28;19921;-82
2022/12/07 05:56:09;;;;;;;;;;;;;;;5.28;67.56;100504.50;4984896;28;19918;-81
2022/12/07 06:02:02;;;;;;;;;;;;;;;5.26;68.01;100506.66;4993546;28;19922;-82
2022/12/07 06:04:46;;;;;;;;;;;;;;;5.25;68.83;100512.34;4981414;28;19917;-79
2022/12/07 06:07:31;;;;;;;;;;;;;;;5.18;68.32;100505.38;4992687;28;20387;-78
2022/12/07 06:10:15;;;;;;;;;;;;;;;4.93;67.43;100505.63;4982952;28;19918;-79
2022/12/07 06:13:01;;;;;;;;;;;;;;;4.95;67.89;100513.44;4997538;28;19922;-78
2022/12/07 06:15:47;;;;;;;;;;;;;;;4.90;67.51;100516.97;4973408;28;19930;-79
2022/12/07 06:18:31;;;;;;;;;;;;;;;4.98;66.98;100515.53;4980014;28;19925;-78
2022/12/07 06:21:15;;;;;;;;;;;;;;;5.03;66.31;100521.69;4986330;28;20306;-81
2022/12/07 06:24:00;;;;;;;;;;;;;;;4.96;66.02;100517.72;4992756;28;19918;-81
2022/12/07 06:26:45;;;;;;;;;;;;;;;4.87;66.13;100512.16;4982279;28;19918;-80
2022/12/07 06:29:30;;;;;;;;;;;;;;;4.92;66.05;100514.81;4984808;28;19917;-81
2022/12/07 06:32:15;;;;;;;;;;;;;;;4.91;66.54;100521.28;4980115;28;19917;-79
2022/12/07 06:34:59;;;;;;;;;;;;;;;4.97;67.58;100522.84;4994141;28;19918;-80
2022/12/07 06:37:44;;;;;;;;;;;;;;;4.95;66.77;100516.94;4989467;28;19918;-81
2022/12/07 06:40:28;;;;;;;;;;;;;;;4.91;66.23;100523.97;4983765;28;19917;-81
2022/12/07 06:43:12;;;;;;;;;;;;;;;4.87;66.07;100533.72;4986610;28;19918;-80
2022/12/07 06:45:57;;;;;;;;;;;;;;;4.95;65.06;100530.41;4976402;28;19921;-80
2022/12/07 06:48:42;;;;;;;;;;;;;;;4.77;65.36;100533.78;4995216;28;19917;-81
2022/12/07 06:51:28;;;;;;;;;;;;;;;4.71;65.70;100534.91;4996924;28;20238;-81
2022/12/07 06:54:15;;;;;;;;;;;;;;;4.66;64.64;100532.25;4988688;28;19922;-81
2022/12/07 06:56:59;;;;;;;;;;;;;;;4.58;65.36;100538.22;4982773;28;20395;-81
2022/12/07 06:59:44;;;;;;;;;;;;;;;4.47;65.37;100534.00;4970617;28;19921;-80
2022/12/07 07:02:29;;;;;;;;;;;;;;;4.48;66.61;100540.97;4987339;28;19918;-80
2022/12/07 07:05:14;;;;;;;;;;;;;;;4.67;65.34;100541.94;4969473;28;19918;-82
2022/12/07 07:07:58;;;;;;;;;;;;;;;4.67;65.51;100548.09;4972990;28;19918;-81
2022/12/07 07:10:43;;;;;;;;;;;;;;;4.66;65.84;100540.34;4982037;28;20394;-81
2022/12/07 07:13:27;;;;;;;;;;;;;;;4.66;65.50;100548.41;5005577;28;19926;-80
2022/12/07 07:16:13;;;;;;;;;;;;;;;4.62;64.58;100547.38;4996502;28;19917;-83
2022/12/07 07:18:58;;;;;;;;;;;;;;;4.65;66.14;100544.91;5011310;28;19925;-80
2022/12/07 07:21:42;;;;;;;;;;;;;;;4.81;65.79;100544.78;4980845;28;19917;-78
2022/12/07 07:24:27;;;;;;;;;;;;;;;4.74;64.28;100551.31;5015446;28;19918;-85
2022/12/07 07:27:37;;;;;;;;;;;;;;;4.82;65.24;100555.31;4997337;28;19946;-81
2022/12/07 07:30:22;;;;;;;;;;;;;;;4.82;65.47;100551.81;4971622;28;20413;-81
2022/12/07 07:33:06;;;;;;;;;;;;;;;4.80;65.54;100551.25;4981800;28;21808;-80
2022/12/07 07:35:51;;;;;;;;;;;;;;;4.75;65.43;100552.09;4983320;28;19917;-80
2022/12/07 07:38:35;;;;;;;;;;;;;;;4.76;65.09;100552.91;4999808;28;19918;-80
2022/12/07 07:41:20;;;;;;;;;;;;;;;4.73;64.84;100556.97;4990220;28;19917;-82
2022/12/07 07:44:04;;;;;;;;;;;;;;;4.73;65.13;100563.16;4978031;28;19917;-80
2022/12/07 07:46:49;;;;;;;;;;;;;;;4.77;65.52;100558.03;4974149;28;19918;-80
2022/12/07 07:49:33;;;;;;;;;;;;;;;4.72;65.45;100558.84;4987085;28;19917;-80
2022/12/07 07:52:17;;;;;;;;;;;;;;;4.75;65.59;100549.41;5000686;28;19922;-80
2022/12/07 07:55:02;;;;;;;;;;;;;;;4.77;65.52;100558.03;4992549;28;19921;-81
2022/12/07 07:57:46;;;;;;;;;;;;;;;4.78;65.59;100554.22;4992486;28;19918;-81
2022/12/07 08:00:31;;;;;;;;;;;;;;;4.87;65.49;100566.03;5009410;28;20383;-80
2022/12/07 08:03:15;;;;;;;;;;;;;;;4.88;65.93;100564.94;4992394;28;20311;-79
2022/12/07 08:06:01;;;;;;;;;;;;;;;4.95;65.62;100565.44;4987761;28;19918;-82
2022/12/07 08:08:46;;;;;;;;;;;;;;;4.83;66.49;100570.34;5010768;28;19918;-82
2022/12/07 08:11:30;;;;;;;;;;;;;;;5.05;69.09;100568.03;4994496;28;19922;-77
2022/12/07 08:14:15;;;;;;;;;;;;;;;4.48;67.84;100560.63;4995430;28;19921;-80
2022/12/07 08:16:59;;;;;;;;;;;;;;;4.22;69.92;100572.59;4997128;28;19918;-79
2022/12/07 08:19:44;;;;;;;;;;;;;;;4.22;69.93;100573.41;5002149;28;20402;-80
2022/12/07 08:22:28;;;;;;;;;;;;;;;4.32;71.48;100569.88;4996269;28;19918;-80
2022/12/07 08:25:13;;;;;;;;;;;;;;;4.38;70.27;100567.94;4996146;28;19918;-80
2022/12/07 08:27:57;;;;;;;;;;;;;;;4.24;71.19;100573.94;4996336;28;20383;-82
2022/12/07 08:30:42;;;;;;;;;;;;;;;4.01;71.81;100577.28;4976875;28;19919;-82
2022/12/07 08:33:26;;;;;;;;;;;;;;;4.02;73.80;100588.84;4989590;28;19922;-79
2022/12/07 08:36:12;;;;;;;;;;;;;;;4.06;73.19;100587.22;4996032;28;20387;-80
2022/12/07 08:38:57;;;;;;;;;;;;;;;4.13;73.62;100590.41;4995535;28;19922;-83
2022/12/07 08:41:45;;;;;;;;;;;;;;;4.05;73.71;100596.38;4981780;28;19917;-81
2022/12/07 08:44:31;;;;;;;;;;;;;;;3.97;75.01;100591.53;4987161;28;19918;-82
2022/12/07 08:47:15;;;;;;;;;;;;;;;3.99;74.56;100597.47;4990209;28;19925;-81
2022/12/07 08:56:56;;;;;;;;;;;;;;;4.09;74.49;100600.13;5295846;23;19914;-85
2022/12/07 09:26:09;;;;;;;;;;;;;;;4.84;72.59;100577.34;5173039;23;19926;-84
2022/12/07 09:28:55;;;;;;;;;;;;;;;4.74;73.85;100577.44;4986397;28;19910;-84
2022/12/07 09:31:40;;;;;;;;;;;;;;;4.95;72.71;100578.91;5128004;23;19910;-86
2022/12/07 09:37:51;;;;;;;;;;;;;;;5.01;73.14;100579.66;4981162;28;19918;-82
2022/12/07 09:46:34;;;;;;;;;;;;;;;5.32;72.38;100585.59;5628146;23;19918;-81
2022/12/07 09:49:26;;;;;;;;;;;;;;;4.90;74.41;100576.25;5437971;23;19914;-84
2022/12/07 09:52:20;;;;;;;;;;;;;;;5.28;73.47;100576.47;5001382;28;19910;-84
2022/12/07 10:39:40;;;;;;;;;;;;;;;8.28;67.31;100539.22;5013841;23;19945;-87
2022/12/07 10:42:31;;;;;;;;;;;;;;;8.32;67.84;100535.63;4978007;28;19923;-87
2022/12/07 10:45:18;;;;;;;;;;;;;;;8.24;69.16;100532.78;4981480;28;19914;-86
2022/12/07 10:48:30;;;;;;;;;;;;;;;8.38;67.87;100537.09;4968845;28;19922;-86
2022/12/07 10:51:42;;;;;;;;;;;;;;;8.48;67.84;100531.47;4967019;28;19922;-87
2022/12/07 11:07:37;;;;;;;;;;;;;;;8.28;67.24;100531.09;5030554;23;19929;-87
2022/12/07 11:10:40;;;;;;;;;;;;;;;8.27;66.67;100530.31;4980691;28;19926;-80
2022/12/07 11:13:45;;;;;;;;;;;;;;;7.99;68.19;100517.88;4964359;28;19922;-80
2022/12/07 11:16:44;;;;;;;;;;;;;;;8.18;68.67;100512.38;4970225;28;19918;-76
2022/12/07 11:19:55;;;;;;;;;;;;;;;8.06;68.08;100510.97;4944755;28;19922;-80
2022/12/07 11:22:55;;;;;;;;;;;;;;;8.29;68.75;100502.88;4955416;28;19935;-78
2022/12/07 11:25:46;;;;;;;;;;;;;;;8.75;68.44;100491.81;4957569;28;19919;-82
2022/12/07 11:28:40;;;;;;;;;;;;;;;8.78;68.64;100500.16;4964929;28;19941;-78
2022/12/07 11:31:29;;;;;;;;;;;;;;;8.86;67.96;100495.88;4955984;28;19919;-77
2022/12/07 11:34:18;;;;;;;;;;;;;;;8.86;67.47;100493.19;4950937;28;19923;-79
2022/12/07 11:37:09;;;;;;;;;;;;;;;8.72;67.43;100489.72;4960612;28;19922;-78
2022/12/07 11:40:01;;;;;;;;;;;;;;;9.03;67.66;100496.00;4956333;28;19923;-79
2022/12/07 11:42:49;;;;;;;;;;;;;;;9.09;67.93;100489.34;4953190;28;19918;-79
2022/12/07 11:45:36;;;;;;;;;;;;;;;9.25;67.78;100490.53;4953385;28;19922;-79
2022/12/07 11:48:24;;;;;;;;;;;;;;;9.33;67.15;100489.78;4981830;28;20395;-79
2022/12/07 11:51:10;;;;;;;;;;;;;;;9.10;66.24;100480.06;4977255;28;20371;-79
2022/12/07 11:53:59;;;;;;;;;;;;;;;9.35;68.24;100476.69;4957411;29;19923;-80
2022/12/07 11:56:44;;;;;;;;;;;;;;;9.49;65.63;100481.22;4958654;28;19918;-79
2022/12/07 11:59:32;;;;;;;;;;;;;;;9.66;66.68;100475.84;4957570;29;19919;-79
2022/12/07 12:02:22;;;;;;;;;;;;;;;9.60;66.69;100479.84;4947661;28;20395;-78
2022/12/07 12:05:14;;;;;;;;;;;;;;;9.49;65.49;100470.38;4945545;28;19919;-79
2022/12/07 12:08:01;;;;;;;;;;;;;;;9.33;66.10;100467.28;4950041;28;20307;-79
2022/12/07 12:11:05;;;;;;;;;;;;;;;9.23;67.13;100462.94;4964876;28;19918;-79
2022/12/07 12:13:50;;;;;;;;;;;;;;;9.21;67.92;100462.44;4961624;28;19922;-79
2022/12/07 12:16:46;;;;;;;;;;;;;;;9.28;66.78;100451.13;4960207;28;19918;-78
2022/12/07 12:19:38;;;;;;;;;;;;;;;9.73;67.70;100449.06;4970406;28;19930;-78
2022/12/07 12:22:27;;;;;;;;;;;;;;;9.81;66.48;100442.81;4977613;28;20337;-79
2022/12/07 12:25:22;;;;;;;;;;;;;;;10.28;67.12;100441.97;4984228;28;19918;-79
2022/12/07 12:28:18;;;;;;;;;;;;;;;10.39;66.42;100434.28;4963975;28;19918;-79
2022/12/07 12:31:06;;;;;;;;;;;;;;;10.69;65.26;100440.66;4959488;28;19918;-78
2022/12/07 12:33:52;;;;;;;;;;;;;;;10.61;65.51;100439.56;4958533;28;20306;-79
2022/12/07 12:36:43;;;;;;;;;;;;;;;10.62;66.03;100435.69;4938553;29;19923;-79
2022/12/07 12:39:28;;;;;;;;;;;;;;;10.93;66.00;100435.47;4956814;28;19919;-78
2022/12/07 12:42:18;;;;;;;;;;;;;;;11.49;65.63;100439.75;4946059;28;19923;-80
2022/12/07 12:45:04;;;;;;;;;;;;;;;11.02;63.19;100427.31;4950322;28;20391;-78
2022/12/07 12:47:59;;;;;;;;;;;;;;;11.47;64.06;100435.78;4967896;28;19923;-79
2022/12/07 12:50:44;;;;;;;;;;;;;;;11.64;62.27;100430.22;4956967;29;19919;-79
2022/12/07 12:53:29;;;;;;;;;;;;;;;11.41;62.38;100432.44;4955984;28;20302;-80
2022/12/07 12:56:16;;;;;;;;;;;;;;;11.52;63.54;100427.41;4959953;28;19926;-79
2022/12/07 12:59:19;;;;;;;;;;;;;;;11.73;63.53;100424.78;4971968;28;19918;-78
2022/12/07 13:02:23;;;;;;;;;;;;;;;11.58;60.37;100424.16;4965730;28;19919;-79
2022/12/07 13:05:09;;;;;;;;;;;;;;;11.96;60.53;100420.59;4941409;29;19919;-78
2022/12/07 13:07:56;;;;;;;;;;;;;;;11.55;59.68;100422.09;4968501;28;20431;-79
2022/12/07 13:10:43;;;;;;;;;;;;;;;11.75;60.14;100415.13;4950411;28;19918;-79
2022/12/07 13:13:31;;;;;;;;;;;;;;;11.74;59.53;100415.44;4949009;28;19918;-78
2022/12/07 13:16:15;;;;;;;;;;;;;;;11.84;59.06;100410.41;4956030;28;20392;-78
2022/12/07 13:19:00;;;;;;;;;;;;;;;11.91;58.74;100407.97;4973414;28;20307;-78
2022/12/07 13:21:44;;;;;;;;;;;;;;;12.04;58.57;100406.09;4958175;28;19919;-79
2022/12/07 13:24:31;;;;;;;;;;;;;;;12.02;58.43;100402.94;4963236;28;20399;-78
2022/12/07 13:27:15;;;;;;;;;;;;;;;12.12;58.45;100412.63;4965649;28;19919;-81
2022/12/07 13:30:01;;;;;;;;;;;;;;;12.25;59.39;100403.38;4949285;28;19918;-79
2022/12/07 13:32:52;;;;;;;;;;;;;;;12.80;58.26;100408.44;4963861;28;20391;-79
2022/12/07 13:35:37;;;;;;;;;;;;;;;12.81;57.82;100413.56;4936529;29;20307;-79
2022/12/07 13:38:36;;;;;;;;;;;;;;;12.60;57.73;100410.09;4961317;28;19918;-83
2022/12/07 13:41:22;;;;;;;;;;;;;;;12.44;57.87;100404.47;4946290;28;19918;-84
2022/12/07 13:44:12;;;;;;;;;;;;;;;12.41;57.80;100401.63;4955536;28;19919;-85
2022/12/07 13:47:00;;;;;;;;;;;;;;;12.47;57.44;100397.56;4946173;28;19919;-85
2022/12/07 13:49:53;;;;;;;;;;;;;;;12.31;57.81;100396.59;4951414;28;20390;-85
2022/12/07 13:52:43;;;;;;;;;;;;;;;12.28;58.36;100391.81;4946400;28;19919;-85
2022/12/07 13:55:28;;;;;;;;;;;;;;;12.09;58.19;100388.78;4964079;28;19922;-86
2022/12/07 13:58:13;;;;;;;;;;;;;;;12.13;57.96;100398.69;4955287;28;19922;-85
2022/12/07 14:00:59;;;;;;;;;;;;;;;12.04;58.30;100392.47;4966377;28;19918;-84
2022/12/07 14:03:43;;;;;;;;;;;;;;;12.15;58.00;100401.06;4984469;28;20314;-85
2022/12/07 14:06:28;;;;;;;;;;;;;;;12.08;58.22;100401.59;4957063;28;19919;-86
2022/12/07 14:09:19;;;;;;;;;;;;;;;12.02;58.00;100399.41;4955466;29;19918;-84
2022/12/07 14:12:05;;;;;;;;;;;;;;;11.94;58.25;100396.41;4952263;28;19923;-86
2022/12/07 14:14:51;;;;;;;;;;;;;;;11.70;59.09;100400.88;4936608;29;19923;-86
2022/12/07 14:17:35;;;;;;;;;;;;;;;11.53;59.49;100407.19;4940832;29;19918;-85
2022/12/07 14:20:31;;;;;;;;;;;;;;;11.46;60.07;100401.50;4954274;28;19919;-86
2022/12/07 14:23:23;;;;;;;;;;;;;;;11.26;60.73;100399.50;4942632;29;19918;-86
2022/12/07 14:26:15;;;;;;;;;;;;;;;11.29;60.54;100396.94;4953432;28;19918;-88
2022/12/07 14:29:19;;;;;;;;;;;;;;;11.20;60.85;100398.09;4945265;28;20315;-85
2022/12/07 14:32:19;;;;;;;;;;;;;;;11.10;61.21;100402.78;4938752;29;20483;-85
2022/12/07 14:35:12;;;;;;;;;;;;;;;10.97;61.49;100395.59;4954633;28;19923;-85
2022/12/07 14:37:56;;;;;;;;;;;;;;;10.96;61.43;100402.19;4954425;28;19922;-85
2022/12/07 14:40:41;;;;;;;;;;;;;;;10.85;61.76;100408.31;4936132;29;19918;-84
2022/12/07 14:43:26;;;;;;;;;;;;;;;10.81;61.90;100397.28;4949032;28;19919;-85
2022/12/07 14:46:10;;;;;;;;;;;;;;;10.71;62.39;100412.03;4941331;29;19919;-85
2022/12/07 14:48:54;;;;;;;;;;;;;;;10.63;62.54;100409.31;4952865;28;19918;-85
2022/12/07 14:51:41;;;;;;;;;;;;;;;10.53;62.96;100407.72;4940151;29;19919;-84
2022/12/07 14:54:30;;;;;;;;;;;;;;;10.47;62.97;100416.34;4935662;29;19922;-84
2022/12/07 14:57:15;;;;;;;;;;;;;;;10.41;63.35;100417.66;4953380;28;19918;-84
2022/12/07 14:59:59;;;;;;;;;;;;;;;10.38;63.00;100410.94;4955029;28;19918;-85
2022/12/07 15:02:44;;;;;;;;;;;;;;;10.33;62.91;100407.59;4950473;28;19918;-85
2022/12/07 15:05:29;;;;;;;;;;;;;;;10.28;62.88;100417.50;4954660;29;20295;-83
2022/12/07 15:08:14;;;;;;;;;;;;;;;10.01;63.78;100412.34;4935652;29;19923;-85
2022/12/07 15:11:00;;;;;;;;;;;;;;;10.12;63.49;100416.34;4946445;28;19919;-84
2022/12/07 15:16:49;;;;;;;;;;;;;;;10.01;63.75;100416.97;4945220;29;19922;-85
2022/12/07 15:19:34;;;;;;;;;;;;;;;9.96;63.70;100419.84;4973994;28;19918;-85
2022/12/07 15:22:18;;;;;;;;;;;;;;;9.93;64.11;100426.72;4969172;28;19919;-85
2022/12/07 15:25:04;;;;;;;;;;;;;;;9.75;63.92;100428.59;4955380;28;19922;-85
2022/12/07 15:27:49;;;;;;;;;;;;;;;9.67;64.42;100428.59;4974217;28;19918;-85
2022/12/07 15:30:33;;;;;;;;;;;;;;;9.56;64.56;100427.28;4960818;28;19922;-85
2022/12/07 15:33:18;;;;;;;;;;;;;;;9.37;64.75;100436.50;4955285;28;19919;-85
2022/12/07 15:36:02;;;;;;;;;;;;;;;9.22;65.61;100442.34;4960459;28;19923;-84
2022/12/07 15:38:47;;;;;;;;;;;;;;;9.14;65.60;100437.69;4967214;28;19919;-84
2022/12/07 15:41:34;;;;;;;;;;;;;;;8.89;66.32;100439.13;4962208;28;19918;-84
2022/12/07 15:47:22;;;;;;;;;;;;;;;8.54;66.64;100435.41;4957183;29;20237;-85
2022/12/07 15:50:08;;;;;;;;;;;;;;;8.35;67.11;100442.91;4942240;29;20686;-85
2022/12/07 15:52:52;;;;;;;;;;;;;;;8.16;67.43;100443.06;4936330;29;19923;-85
2022/12/07 15:55:40;;;;;;;;;;;;;;;8.12;67.89;100443.97;4943274;28;20299;-84
2022/12/07 15:58:25;;;;;;;;;;;;;;;8.04;68.05;100452.78;4979110;28;19926;-84
2022/12/07 16:01:10;;;;;;;;;;;;;;;7.93;68.24;100444.09;4973087;28;19917;-84
2022/12/07 16:03:56;;;;;;;;;;;;;;;7.91;68.14;100440.91;4971772;28;19918;-84
2022/12/07 16:06:41;;;;;;;;;;;;;;;8.03;67.42;100440.34;4959112;28;19918;-84
2022/12/07 16:09:26;;;;;;;;;;;;;;;7.85;67.88;100427.78;4962253;28;19918;-84
2022/12/07 16:12:11;;;;;;;;;;;;;;;7.70;68.33;100435.13;4961340;28;19918;-84
2022/12/07 16:14:56;;;;;;;;;;;;;;;7.61;68.42;100439.66;4963773;28;19926;-84
2022/12/07 16:17:41;;;;;;;;;;;;;;;7.66;68.12;100436.03;4957940;28;19918;-84